St Solene — FVDG — position and weather

sailwx.info

Track history (hours):
 
Tides and Currents Weather Stations Pressure Air Temp Water Temp Dewpoint Dewpoint Depression Visibility Wind Speed Wind Dir Waves Ship Positions

St Solene

Last reported at 2017-Jan-18 18:30 UTC. Time now 2017-Jan-22 08:05 UTC.
Position N 40°26' E 001°05'.

Length 104 m; draft 6.6 m.

Type: Tanker. MMSI: 226302000.

Date/timePositionNaut miles runAvg speedWind from/ knotsBaromVisibWave heightAir tempDewpointWater temp
2017-Jan-18 18:30N 40°26' E 001°05'1212.2
2017-Jan-18 17:32N 40°31' E 001°19'2512.5
2017-Jan-18 15:33N 40°44' E 001°47'1312.5
2017-Jan-18 14:33N 40°50' E 002°02'1212.0
2017-Jan-18 13:33N 40°56' E 002°16'1312.7
2017-Jan-18 12:33N 41°02' E 002°30'1212.2
2017-Jan-18 11:33N 41°08' E 002°45'13311.1
2017-Jan-17 23:34N 42°51' E 004°39'1111.1
2017-Jan-17 22:33N 42°59' E 004°49'1211.6
2017-Jan-17 21:33N 43°08' E 004°59'1211.8
2017-Jan-17 20:34N 43°20' E 004°58'6 6.0
2017-Jan-17 19:32N 43°25' E 004°53'0 0.0
2017-Jan-17 18:32N 43°25' E 004°53'0 0.0
2017-Jan-17 17:32N 43°25' E 004°53'0 0.0
2017-Jan-17 16:26N 43°25' E 004°53'0 0.0
2017-Jan-17 15:32N 43°25' E 004°53'0 0.0
2017-Jan-17 14:32N 43°25' E 004°53'0 0.0
2017-Jan-17 13:32N 43°25' E 004°53'0 0.0
2017-Jan-17 12:32N 43°25' E 004°53'0 0.0
2017-Jan-17 11:32N 43°25' E 004°53'0 0.0
2017-Jan-17 10:32N 43°25' E 004°53'0 0.0
2017-Jan-17 09:32N 43°25' E 004°53'0 0.0
2017-Jan-17 08:32N 43°25' E 004°53'0 0.0
2017-Jan-17 07:32N 43°25' E 004°53'0 0.0
2017-Jan-17 06:32N 43°25' E 004°53'0 0.0
2017-Jan-17 05:32N 43°25' E 004°53'0 0.0
2017-Jan-17 04:32N 43°25' E 004°53'0 0.0
2017-Jan-17 03:32N 43°25' E 004°53'0 0.0
2017-Jan-17 02:32N 43°25' E 004°53'0 0.0
2017-Jan-17 01:32N 43°25' E 004°53'0 0.0
2017-Jan-17 00:32N 43°25' E 004°53'0 0.0
2017-Jan-16 23:32N 43°25' E 004°53'0 0.0
2017-Jan-16 22:26N 43°25' E 004°53'2 2.6
2017-Jan-16 21:34N 43°25' E 004°56'0 0.1
2017-Jan-16 20:33N 43°25' E 004°56'0 0.0
2017-Jan-16 19:33N 43°25' E 004°56'0 0.0
2017-Jan-16 18:14N 43°25' E 004°56'0 0.0
2017-Jan-16 17:31N 43°25' E 004°56'0 0.0
2017-Jan-16 16:06N 43°25' E 004°56'0 0.1
2017-Jan-16 15:33N 43°25' E 004°56'0 0.0
2017-Jan-16 14:33N 43°25' E 004°56'0 0.0
2017-Jan-16 13:24N 43°25' E 004°56'0 0.0
2017-Jan-16 12:27N 43°25' E 004°56'0 0.0
2017-Jan-16 11:31N 43°25' E 004°56'0 0.0
2017-Jan-16 10:32N 43°25' E 004°56'0 0.0
2017-Jan-16 09:33N 43°25' E 004°56'0 0.0
2017-Jan-16 08:33N 43°25' E 004°56'0 0.0
2017-Jan-16 07:33N 43°25' E 004°56'0 0.0
2017-Jan-16 06:33N 43°25' E 004°56'0 0.0
2017-Jan-16 05:34N 43°25' E 004°56'0 0.0
2017-Jan-16 04:33N 43°25' E 004°56'0 0.0
2017-Jan-16 03:34N 43°25' E 004°56'0 0.0
2017-Jan-16 02:34N 43°25' E 004°56'0 0.0
2017-Jan-16 01:33N 43°25' E 004°56'0 0.0
2017-Jan-16 00:33N 43°25' E 004°56'0 0.0
2017-Jan-15 23:33N 43°25' E 004°56'0 0.0
2017-Jan-15 22:34N 43°25' E 004°56'4 4.2
2017-Jan-15 21:34N 43°21' E 004°59'1010.0
2017-Jan-15 20:33N 43°11' E 005°02'1110.9
2017-Jan-15 19:33N 43°07' E 004°48'1212.0
2017-Jan-15 18:33N 43°05' E 004°31'1311.9
2017-Jan-15 17:27N 43°03' E 004°13'1 0.0
2017-Jan-14 15:33N 43°04' E 004°13'1010.2
2017-Jan-14 14:33N 43°05' E 004°27'1010.0
2017-Jan-14 13:33N 43°06' E 004°40'1010.0
2017-Jan-14 12:33N 43°07' E 004°54'10 9.1
2017-Jan-14 11:28N 43°16' E 004°59'1010.6
2017-Jan-14 10:33N 43°25' E 004°53'0 0.2
2017-Jan-14 09:31N 43°25' E 004°53'0 0.0
2017-Jan-14 08:31N 43°25' E 004°53'0 0.0
2017-Jan-14 07:25N 43°25' E 004°53'0 0.0
2017-Jan-14 06:31N 43°25' E 004°53'0 0.0
2017-Jan-14 05:31N 43°25' E 004°53'0 0.0
2017-Jan-14 04:25N 43°25' E 004°53'0 0.0
2017-Jan-14 03:31N 43°25' E 004°53'0 0.0
2017-Jan-13 23:25N 43°25' E 004°53'0 0.0
2017-Jan-13 22:31N 43°25' E 004°53'0 0.0
2017-Jan-13 21:31N 43°25' E 004°53'0 0.0
2017-Jan-13 20:28N 43°25' E 004°53'0 0.0
2017-Jan-13 19:31N 43°25' E 004°53'0 0.0
2017-Jan-13 18:33N 43°25' E 004°53'2 1.9
2017-Jan-13 17:33N 43°25' E 004°56'0 0.1
2017-Jan-13 16:33N 43°25' E 004°56'0 0.0
2017-Jan-13 15:33N 43°25' E 004°56'0 0.0
2017-Jan-13 14:33N 43°25' E 004°56'0 0.0
2017-Jan-13 13:33N 43°25' E 004°56'0 0.0
2017-Jan-13 12:33N 43°25' E 004°56'0 0.0
2017-Jan-13 11:33N 43°25' E 004°56'0 0.0
2017-Jan-13 10:33N 43°25' E 004°56'0 0.0
2017-Jan-13 09:33N 43°25' E 004°56'0 0.0
2017-Jan-13 08:33N 43°25' E 004°56'0 0.0
2017-Jan-13 07:33N 43°25' E 004°56'0 0.0
2017-Jan-13 06:33N 43°25' E 004°56'0 0.0
2017-Jan-13 05:33N 43°25' E 004°56'0 0.0
2017-Jan-13 04:33N 43°25' E 004°56'0 0.0
2017-Jan-13 03:33N 43°25' E 004°56'0 0.0
2017-Jan-13 02:33N 43°25' E 004°56'0 0.0
2017-Jan-13 01:34N 43°25' E 004°56'0 0.0
2017-Jan-13 00:33N 43°25' E 004°56'0 0.1
2017-Jan-12 23:33N 43°25' E 004°56'0 0.0
2017-Jan-12 22:33N 43°25' E 004°56'0 0.0
2017-Jan-12 21:33N 43°25' E 004°56'0 0.0
2017-Jan-12 20:33N 43°25' E 004°56'0 0.0
2017-Jan-12 19:33N 43°25' E 004°56'0 0.0
2017-Jan-12 18:33N 43°25' E 004°56'0 0.0
2017-Jan-12 17:33N 43°25' E 004°56'0 0.0
2017-Jan-12 16:33N 43°25' E 004°56'0 0.0
2017-Jan-12 15:34N 43°25' E 004°56'0 0.0
2017-Jan-12 14:33N 43°25' E 004°56'0 0.0
2017-Jan-12 13:33N 43°25' E 004°56'0 0.0
2017-Jan-12 12:34N 43°25' E 004°56'0 0.0
2017-Jan-12 11:33N 43°25' E 004°56'0 0.0
2017-Jan-12 10:33N 43°25' E 004°56'0 0.0
2017-Jan-12 09:33N 43°25' E 004°56'0 0.0
2017-Jan-12 08:33N 43°25' E 004°56'0 0.0
2017-Jan-12 07:33N 43°25' E 004°56'0 0.0
2017-Jan-12 06:33N 43°25' E 004°56'0 0.0
2017-Jan-12 05:33N 43°25' E 004°56'0 0.0
2017-Jan-12 04:34N 43°25' E 004°56'0 0.0
2017-Jan-12 03:33N 43°25' E 004°56'0 0.0
2017-Jan-12 02:33N 43°25' E 004°56'0 0.0
2017-Jan-12 01:33N 43°25' E 004°56'0 0.0
2017-Jan-12 00:33N 43°25' E 004°56'0 0.0
2017-Jan-11 23:33N 43°25' E 004°56'0 0.0
2017-Jan-11 22:33N 43°25' E 004°56'0 0.1
2017-Jan-11 21:33N 43°25' E 004°56'0 0.0
2017-Jan-11 20:33N 43°25' E 004°56'0 0.0
2017-Jan-11 19:33N 43°25' E 004°56'0 0.0
2017-Jan-11 18:33N 43°25' E 004°56'0 0.0
2017-Jan-11 17:33N 43°25' E 004°56'0 0.0
2017-Jan-11 16:33N 43°25' E 004°56'0 0.0
2017-Jan-11 15:33N 43°25' E 004°56'0 0.0
2017-Jan-11 14:33N 43°25' E 004°56'0 0.1
2017-Jan-11 13:33N 43°25' E 004°56'2 1.7
2017-Jan-11 12:28N 43°25' E 004°53'0 0.0
2017-Jan-11 11:31N 43°25' E 004°53'0 0.0
2017-Jan-11 10:31N 43°25' E 004°53'0 0.0
2017-Jan-11 09:28N 43°25' E 004°53'0 0.0
2017-Jan-11 08:28N 43°25' E 004°53'0 0.0
2017-Jan-11 07:31N 43°25' E 004°53'0 0.0
2017-Jan-11 06:31N 43°25' E 004°53'0 0.0
2017-Jan-11 05:31N 43°25' E 004°53'0 0.0
2017-Jan-11 04:31N 43°25' E 004°53'0 0.0
2017-Jan-11 03:31N 43°25' E 004°53'0 0.0
2017-Jan-11 02:31N 43°25' E 004°53'0 0.0
2017-Jan-11 01:28N 43°25' E 004°53'0 0.0
2017-Jan-11 00:28N 43°25' E 004°53'0 0.0
2017-Jan-10 23:31N 43°25' E 004°53'0 0.0
2017-Jan-10 22:28N 43°25' E 004°53'0 0.0
2017-Jan-10 21:31N 43°25' E 004°53'0 0.0
2017-Jan-10 20:28N 43°25' E 004°53'0 0.0
2017-Jan-10 19:28N 43°25' E 004°53'0 0.0
2017-Jan-10 18:22N 43°25' E 004°53'0 0.0
2017-Jan-10 17:31N 43°25' E 004°53'0 0.0
2017-Jan-10 16:28N 43°25' E 004°53'0 0.0
2017-Jan-10 15:28N 43°25' E 004°53'0 0.0
2017-Jan-10 14:28N 43°25' E 004°53'0 0.0
2017-Jan-10 13:28N 43°25' E 004°53'0 0.0
2017-Jan-10 12:31N 43°25' E 004°53'0 0.0
2017-Jan-10 11:28N 43°25' E 004°53'0 0.0
2017-Jan-10 10:28N 43°25' E 004°53'0 0.0
2017-Jan-10 09:28N 43°25' E 004°53'0 0.0
2017-Jan-10 08:31N 43°25' E 004°53'0 0.0
2017-Jan-10 07:28N 43°25' E 004°53'0 0.0
2017-Jan-10 06:25N 43°25' E 004°53'0 0.0
2017-Jan-10 05:25N 43°25' E 004°53'0 0.0
2017-Jan-10 04:28N 43°25' E 004°53'2 2.6
2017-Jan-10 03:33N 43°25' E 004°56'0 0.2
2017-Jan-10 02:32N 43°25' E 004°57'0 0.0
2017-Jan-10 01:32N 43°25' E 004°57'0 0.0
2017-Jan-10 00:32N 43°25' E 004°57'0 0.0
2017-Jan-09 23:32N 43°25' E 004°57'0 0.0
2017-Jan-09 22:32N 43°25' E 004°57'0 0.0
2017-Jan-09 21:32N 43°25' E 004°57'0 0.0
2017-Jan-09 20:32N 43°25' E 004°57'0 0.0
2017-Jan-09 19:29N 43°25' E 004°57'0 0.0
2017-Jan-09 18:32N 43°25' E 004°57'0 0.0
2017-Jan-09 17:32N 43°25' E 004°57'0 0.0
2017-Jan-09 16:32N 43°25' E 004°57'0 0.0
2017-Jan-09 15:32N 43°25' E 004°57'0 0.0
2017-Jan-09 14:32N 43°25' E 004°57'0 0.0
2017-Jan-09 13:32N 43°25' E 004°57'0 0.0
2017-Jan-09 12:32N 43°25' E 004°57'0 0.0
2017-Jan-09 11:32N 43°25' E 004°57'0 0.0
2017-Jan-09 10:32N 43°25' E 004°57'0 0.0
2017-Jan-09 09:29N 43°25' E 004°57'0 0.0
2017-Jan-09 08:32N 43°25' E 004°57'0 0.0
2017-Jan-09 07:32N 43°25' E 004°57'0 0.0
2017-Jan-09 06:32N 43°25' E 004°57'0 0.0
2017-Jan-09 05:32N 43°25' E 004°57'0 0.0
2017-Jan-09 04:32N 43°25' E 004°57'0 0.0
2017-Jan-09 03:32N 43°25' E 004°57'0 0.0
2017-Jan-09 02:32N 43°25' E 004°57'0 0.0
2017-Jan-09 01:32N 43°25' E 004°57'0 0.0
2017-Jan-09 00:32N 43°25' E 004°57'0 0.0
2017-Jan-08 23:32N 43°25' E 004°57'0 0.0
2017-Jan-08 22:32N 43°25' E 004°57'0 0.0
2017-Jan-08 21:32N 43°25' E 004°57'0 0.0
2017-Jan-08 20:32N 43°25' E 004°57'0 0.0
2017-Jan-08 19:32N 43°25' E 004°57'0 0.0
2017-Jan-08 18:32N 43°25' E 004°57'  
Track history (hours):
 
Tides and Currents Weather Stations Pressure Air Temp Water Temp Dewpoint Dewpoint Depression Visibility Wind Speed Wind Dir Waves Ship Positions

St Solene

Last reported at 2017-Jan-18 18:30 UTC. Time now 2017-Jan-22 08:05 UTC.
Position N 40°26' E 001°05'.

Length 104 m; draft 6.6 m.

Type: Tanker. MMSI: 226302000.

Date/timePositionNaut miles runAvg speedWind from/ knotsBaromVisibWave heightAir tempDewpointWater temp
2017-Jan-18 18:30N 40°26' E 001°05'1212.2
2017-Jan-18 17:32N 40°31' E 001°19'2512.5
2017-Jan-18 15:33N 40°44' E 001°47'1312.5
2017-Jan-18 14:33N 40°50' E 002°02'1212.0
2017-Jan-18 13:33N 40°56' E 002°16'1312.7
2017-Jan-18 12:33N 41°02' E 002°30'1212.2
2017-Jan-18 11:33N 41°08' E 002°45'13311.1
2017-Jan-17 23:34N 42°51' E 004°39'1111.1
2017-Jan-17 22:33N 42°59' E 004°49'1211.6
2017-Jan-17 21:33N 43°08' E 004°59'1211.8
2017-Jan-17 20:34N 43°20' E 004°58'6 6.0
2017-Jan-17 19:32N 43°25' E 004°53'0 0.0
2017-Jan-17 18:32N 43°25' E 004°53'0 0.0
2017-Jan-17 17:32N 43°25' E 004°53'0 0.0
2017-Jan-17 16:26N 43°25' E 004°53'0 0.0
2017-Jan-17 15:32N 43°25' E 004°53'0 0.0
2017-Jan-17 14:32N 43°25' E 004°53'0 0.0
2017-Jan-17 13:32N 43°25' E 004°53'0 0.0
2017-Jan-17 12:32N 43°25' E 004°53'0 0.0
2017-Jan-17 11:32N 43°25' E 004°53'0 0.0
2017-Jan-17 10:32N 43°25' E 004°53'0 0.0
2017-Jan-17 09:32N 43°25' E 004°53'0 0.0
2017-Jan-17 08:32N 43°25' E 004°53'0 0.0
2017-Jan-17 07:32N 43°25' E 004°53'0 0.0
2017-Jan-17 06:32N 43°25' E 004°53'0 0.0
2017-Jan-17 05:32N 43°25' E 004°53'0 0.0
2017-Jan-17 04:32N 43°25' E 004°53'0 0.0
2017-Jan-17 03:32N 43°25' E 004°53'0 0.0
2017-Jan-17 02:32N 43°25' E 004°53'0 0.0
2017-Jan-17 01:32N 43°25' E 004°53'0 0.0
2017-Jan-17 00:32N 43°25' E 004°53'0 0.0
2017-Jan-16 23:32N 43°25' E 004°53'0 0.0
2017-Jan-16 22:26N 43°25' E 004°53'2 2.6
2017-Jan-16 21:34N 43°25' E 004°56'0 0.1
2017-Jan-16 20:33N 43°25' E 004°56'0 0.0
2017-Jan-16 19:33N 43°25' E 004°56'0 0.0
2017-Jan-16 18:14N 43°25' E 004°56'0 0.0
2017-Jan-16 17:31N 43°25' E 004°56'0 0.0
2017-Jan-16 16:06N 43°25' E 004°56'0 0.1
2017-Jan-16 15:33N 43°25' E 004°56'0 0.0
2017-Jan-16 14:33N 43°25' E 004°56'0 0.0
2017-Jan-16 13:24N 43°25' E 004°56'0 0.0
2017-Jan-16 12:27N 43°25' E 004°56'0 0.0
2017-Jan-16 11:31N 43°25' E 004°56'0 0.0
2017-Jan-16 10:32N 43°25' E 004°56'0 0.0
2017-Jan-16 09:33N 43°25' E 004°56'0 0.0
2017-Jan-16 08:33N 43°25' E 004°56'0 0.0
2017-Jan-16 07:33N 43°25' E 004°56'0 0.0
2017-Jan-16 06:33N 43°25' E 004°56'0 0.0
2017-Jan-16 05:34N 43°25' E 004°56'0 0.0
2017-Jan-16 04:33N 43°25' E 004°56'0 0.0
2017-Jan-16 03:34N 43°25' E 004°56'0 0.0
2017-Jan-16 02:34N 43°25' E 004°56'0 0.0
2017-Jan-16 01:33N 43°25' E 004°56'0 0.0
2017-Jan-16 00:33N 43°25' E 004°56'0 0.0
2017-Jan-15 23:33N 43°25' E 004°56'0 0.0
2017-Jan-15 22:34N 43°25' E 004°56'4 4.2
2017-Jan-15 21:34N 43°21' E 004°59'1010.0
2017-Jan-15 20:33N 43°11' E 005°02'1110.9
2017-Jan-15 19:33N 43°07' E 004°48'1212.0
2017-Jan-15 18:33N 43°05' E 004°31'1311.9
2017-Jan-15 17:27N 43°03' E 004°13'1 0.0
2017-Jan-14 15:33N 43°04' E 004°13'1010.2
2017-Jan-14 14:33N 43°05' E 004°27'1010.0
2017-Jan-14 13:33N 43°06' E 004°40'1010.0
2017-Jan-14 12:33N 43°07' E 004°54'10 9.1
2017-Jan-14 11:28N 43°16' E 004°59'1010.6
2017-Jan-14 10:33N 43°25' E 004°53'0 0.2
2017-Jan-14 09:31N 43°25' E 004°53'0 0.0
2017-Jan-14 08:31N 43°25' E 004°53'0 0.0
2017-Jan-14 07:25N 43°25' E 004°53'0 0.0
2017-Jan-14 06:31N 43°25' E 004°53'0 0.0
2017-Jan-14 05:31N 43°25' E 004°53'0 0.0
2017-Jan-14 04:25N 43°25' E 004°53'0 0.0
2017-Jan-14 03:31N 43°25' E 004°53'0 0.0
2017-Jan-13 23:25N 43°25' E 004°53'0 0.0
2017-Jan-13 22:31N 43°25' E 004°53'0 0.0
2017-Jan-13 21:31N 43°25' E 004°53'0 0.0
2017-Jan-13 20:28N 43°25' E 004°53'0 0.0
2017-Jan-13 19:31N 43°25' E 004°53'0 0.0
2017-Jan-13 18:33N 43°25' E 004°53'2 1.9
2017-Jan-13 17:33N 43°25' E 004°56'0 0.1
2017-Jan-13 16:33N 43°25' E 004°56'0 0.0
2017-Jan-13 15:33N 43°25' E 004°56'0 0.0
2017-Jan-13 14:33N 43°25' E 004°56'0 0.0
2017-Jan-13 13:33N 43°25' E 004°56'0 0.0
2017-Jan-13 12:33N 43°25' E 004°56'0 0.0
2017-Jan-13 11:33N 43°25' E 004°56'0 0.0
2017-Jan-13 10:33N 43°25' E 004°56'0 0.0
2017-Jan-13 09:33N 43°25' E 004°56'0 0.0
2017-Jan-13 08:33N 43°25' E 004°56'0 0.0
2017-Jan-13 07:33N 43°25' E 004°56'0 0.0
2017-Jan-13 06:33N 43°25' E 004°56'0 0.0
2017-Jan-13 05:33N 43°25' E 004°56'0 0.0
2017-Jan-13 04:33N 43°25' E 004°56'0 0.0
2017-Jan-13 03:33N 43°25' E 004°56'0 0.0
2017-Jan-13 02:33N 43°25' E 004°56'0 0.0
2017-Jan-13 01:34N 43°25' E 004°56'0 0.0
2017-Jan-13 00:33N 43°25' E 004°56'0 0.1
2017-Jan-12 23:33N 43°25' E 004°56'0 0.0
2017-Jan-12 22:33N 43°25' E 004°56'0 0.0
2017-Jan-12 21:33N 43°25' E 004°56'0 0.0
2017-Jan-12 20:33N 43°25' E 004°56'0 0.0
2017-Jan-12 19:33N 43°25' E 004°56'0 0.0
2017-Jan-12 18:33N 43°25' E 004°56'0 0.0
2017-Jan-12 17:33N 43°25' E 004°56'0 0.0
2017-Jan-12 16:33N 43°25' E 004°56'0 0.0
2017-Jan-12 15:34N 43°25' E 004°56'0 0.0
2017-Jan-12 14:33N 43°25' E 004°56'0 0.0
2017-Jan-12 13:33N 43°25' E 004°56'0 0.0
2017-Jan-12 12:34N 43°25' E 004°56'0 0.0
2017-Jan-12 11:33N 43°25' E 004°56'0 0.0
2017-Jan-12 10:33N 43°25' E 004°56'0 0.0
2017-Jan-12 09:33N 43°25' E 004°56'0 0.0
2017-Jan-12 08:33N 43°25' E 004°56'0 0.0
2017-Jan-12 07:33N 43°25' E 004°56'0 0.0
2017-Jan-12 06:33N 43°25' E 004°56'0 0.0
2017-Jan-12 05:33N 43°25' E 004°56'0 0.0
2017-Jan-12 04:34N 43°25' E 004°56'0 0.0
2017-Jan-12 03:33N 43°25' E 004°56'0 0.0
2017-Jan-12 02:33N 43°25' E 004°56'0 0.0
2017-Jan-12 01:33N 43°25' E 004°56'0 0.0
2017-Jan-12 00:33N 43°25' E 004°56'0 0.0
2017-Jan-11 23:33N 43°25' E 004°56'0 0.0
2017-Jan-11 22:33N 43°25' E 004°56'0 0.1
2017-Jan-11 21:33N 43°25' E 004°56'0 0.0
2017-Jan-11 20:33N 43°25' E 004°56'0 0.0
2017-Jan-11 19:33N 43°25' E 004°56'0 0.0
2017-Jan-11 18:33N 43°25' E 004°56'0 0.0
2017-Jan-11 17:33N 43°25' E 004°56'0 0.0
2017-Jan-11 16:33N 43°25' E 004°56'0 0.0
2017-Jan-11 15:33N 43°25' E 004°56'0 0.0
2017-Jan-11 14:33N 43°25' E 004°56'0 0.1
2017-Jan-11 13:33N 43°25' E 004°56'2 1.7
2017-Jan-11 12:28N 43°25' E 004°53'0 0.0
2017-Jan-11 11:31N 43°25' E 004°53'0 0.0
2017-Jan-11 10:31N 43°25' E 004°53'0 0.0
2017-Jan-11 09:28N 43°25' E 004°53'0 0.0
2017-Jan-11 08:28N 43°25' E 004°53'0 0.0
2017-Jan-11 07:31N 43°25' E 004°53'0 0.0
2017-Jan-11 06:31N 43°25' E 004°53'0 0.0
2017-Jan-11 05:31N 43°25' E 004°53'0 0.0
2017-Jan-11 04:31N 43°25' E 004°53'0 0.0
2017-Jan-11 03:31N 43°25' E 004°53'0 0.0
2017-Jan-11 02:31N 43°25' E 004°53'0 0.0
2017-Jan-11 01:28N 43°25' E 004°53'0 0.0
2017-Jan-11 00:28N 43°25' E 004°53'0 0.0
2017-Jan-10 23:31N 43°25' E 004°53'0 0.0
2017-Jan-10 22:28N 43°25' E 004°53'0 0.0
2017-Jan-10 21:31N 43°25' E 004°53'0 0.0
2017-Jan-10 20:28N 43°25' E 004°53'0 0.0
2017-Jan-10 19:28N 43°25' E 004°53'0 0.0
2017-Jan-10 18:22N 43°25' E 004°53'0 0.0
2017-Jan-10 17:31N 43°25' E 004°53'0 0.0
2017-Jan-10 16:28N 43°25' E 004°53'0 0.0
2017-Jan-10 15:28N 43°25' E 004°53'0 0.0
2017-Jan-10 14:28N 43°25' E 004°53'0 0.0
2017-Jan-10 13:28N 43°25' E 004°53'0 0.0
2017-Jan-10 12:31N 43°25' E 004°53'0 0.0
2017-Jan-10 11:28N 43°25' E 004°53'0 0.0
2017-Jan-10 10:28N 43°25' E 004°53'0 0.0
2017-Jan-10 09:28N 43°25' E 004°53'0 0.0
2017-Jan-10 08:31N 43°25' E 004°53'0 0.0
2017-Jan-10 07:28N 43°25' E 004°53'0 0.0
2017-Jan-10 06:25N 43°25' E 004°53'0 0.0
2017-Jan-10 05:25N 43°25' E 004°53'0 0.0
2017-Jan-10 04:28N 43°25' E 004°53'2 2.6
2017-Jan-10 03:33N 43°25' E 004°56'0 0.2
2017-Jan-10 02:32N 43°25' E 004°57'0 0.0
2017-Jan-10 01:32N 43°25' E 004°57'0 0.0
2017-Jan-10 00:32N 43°25' E 004°57'0 0.0
2017-Jan-09 23:32N 43°25' E 004°57'0 0.0
2017-Jan-09 22:32N 43°25' E 004°57'0 0.0
2017-Jan-09 21:32N 43°25' E 004°57'0 0.0
2017-Jan-09 20:32N 43°25' E 004°57'0 0.0
2017-Jan-09 19:29N 43°25' E 004°57'0 0.0
2017-Jan-09 18:32N 43°25' E 004°57'0 0.0
2017-Jan-09 17:32N 43°25' E 004°57'0 0.0
2017-Jan-09 16:32N 43°25' E 004°57'0 0.0
2017-Jan-09 15:32N 43°25' E 004°57'0 0.0
2017-Jan-09 14:32N 43°25' E 004°57'0 0.0
2017-Jan-09 13:32N 43°25' E 004°57'0 0.0
2017-Jan-09 12:32N 43°25' E 004°57'0 0.0
2017-Jan-09 11:32N 43°25' E 004°57'0 0.0
2017-Jan-09 10:32N 43°25' E 004°57'0 0.0
2017-Jan-09 09:29N 43°25' E 004°57'0 0.0
2017-Jan-09 08:32N 43°25' E 004°57'0 0.0
2017-Jan-09 07:32N 43°25' E 004°57'0 0.0
2017-Jan-09 06:32N 43°25' E 004°57'0 0.0
2017-Jan-09 05:32N 43°25' E 004°57'0 0.0
2017-Jan-09 04:32N 43°25' E 004°57'0 0.0
2017-Jan-09 03:32N 43°25' E 004°57'0 0.0
2017-Jan-09 02:32N 43°25' E 004°57'0 0.0
2017-Jan-09 01:32N 43°25' E 004°57'0 0.0
2017-Jan-09 00:32N 43°25' E 004°57'0 0.0
2017-Jan-08 23:32N 43°25' E 004°57'0 0.0
2017-Jan-08 22:32N 43°25' E 004°57'0 0.0
2017-Jan-08 21:32N 43°25' E 004°57'0 0.0
2017-Jan-08 20:32N 43°25' E 004°57'0 0.0
2017-Jan-08 19:32N 43°25' E 004°57'0 0.0
2017-Jan-08 18:32N 43°25' E 004°57'  

Dump ship's entire track history